createdAt,value
2022-12-08T00:00:10.187Z,98047.88
2022-12-08T00:01:17.925Z,98042.13
2022-12-08T00:02:20.911Z,98046.50
2022-12-08T00:03:23.926Z,98040.13
2022-12-08T00:04:26.862Z,98041.34
2022-12-08T00:05:48.342Z,98048.06
2022-12-08T00:07:10.781Z,98047.41
2022-12-08T00:08:32.485Z,98039.09
2022-12-08T00:09:39.802Z,98044.38
2022-12-08T00:10:49.937Z,98044.00
2022-12-08T00:11:56.509Z,98044.66
2022-12-08T00:12:59.233Z,98048.94
2022-12-08T00:14:02.121Z,98043.44
2022-12-08T00:15:05.435Z,98041.63
2022-12-08T00:16:08.813Z,98043.88
2022-12-08T00:17:14.260Z,98033.47
2022-12-08T00:18:17.291Z,98040.78
2022-12-08T00:19:20.369Z,98030.69
2022-12-08T00:20:23.027Z,98036.72
2022-12-08T00:21:25.686Z,98041.53
2022-12-08T00:22:29.379Z,98035.03
2022-12-08T00:23:35.523Z,98041.84
2022-12-08T00:24:40.049Z,98042.31
2022-12-08T00:25:42.797Z,98032.25
2022-12-08T00:26:45.688Z,98041.53
2022-12-08T00:27:48.252Z,98045.94
2022-12-08T00:28:51.448Z,98042.25
2022-12-08T00:29:54.230Z,98037.56
2022-12-08T00:30:56.861Z,98043.56
2022-12-08T00:31:59.670Z,98043.94
2022-12-08T00:33:02.370Z,98041.69
2022-12-08T00:34:05.331Z,98036.84
2022-12-08T00:35:08.428Z,98040.56
2022-12-08T00:36:14.045Z,98041.66
2022-12-08T00:37:16.846Z,98043.31
2022-12-08T00:38:19.805Z,98043.09
2022-12-08T00:39:22.488Z,98043.75
2022-12-08T00:40:25.179Z,98044.34
2022-12-08T00:41:47.813Z,98053.53
2022-12-08T00:42:50.523Z,98046.69
2022-12-08T00:43:53.180Z,98049.59
2022-12-08T00:44:56.127Z,98047.38
2022-12-08T00:45:58.817Z,98044.34
2022-12-08T00:47:01.490Z,98054.19
2022-12-08T00:48:04.351Z,98046.34
2022-12-08T00:49:07.716Z,98050.81
2022-12-08T00:50:11.249Z,98051.81
2022-12-08T00:51:14.048Z,98049.44
2022-12-08T00:52:16.717Z,98044.41
2022-12-08T00:53:19.288Z,98045.41
2022-12-08T00:54:23.252Z,98050.13
2022-12-08T00:55:26.044Z,98054.69
2022-12-08T00:56:28.775Z,98049.09
2022-12-08T00:57:32.484Z,98046.62
2022-12-08T00:58:35.207Z,98053.25
2022-12-08T00:59:37.942Z,98056.59
2022-12-08T01:00:42.116Z,98054.59
2022-12-08T01:01:46.324Z,98053.44
2022-12-08T01:02:49.374Z,98055.38
2022-12-08T01:03:52.700Z,98049.78
2022-12-08T01:04:55.619Z,98057.66
2022-12-08T01:06:03.620Z,98052.25
2022-12-08T01:07:06.845Z,98055.16
2022-12-08T01:08:09.615Z,98056.50
2022-12-08T01:09:14.254Z,98056.28
2022-12-08T01:10:17.327Z,98055.59
2022-12-08T01:11:20.289Z,98055.38
2022-12-08T01:12:23.082Z,98055.84
2022-12-08T01:13:25.821Z,98052.78
2022-12-08T01:14:28.565Z,98059.81
2022-12-08T01:15:31.327Z,98046.47
2022-12-08T01:16:36.331Z,98051.06
2022-12-08T01:17:39.324Z,98048.53
2022-12-08T01:18:42.194Z,98041.25
2022-12-08T01:19:44.889Z,98044.16
2022-12-08T01:20:47.731Z,98051.09
2022-12-08T01:21:50.323Z,98053.31
2022-12-08T01:22:53.093Z,98050.53
2022-12-08T01:23:59.135Z,98044.38
2022-12-08T01:25:02.729Z,98047.22
2022-12-08T01:26:07.447Z,98047.31
2022-12-08T01:27:10.157Z,98047.06
2022-12-08T01:28:13.248Z,98045.31
2022-12-08T01:29:16.134Z,98046.19
2022-12-08T01:30:19.731Z,98046.91
2022-12-08T01:31:23.340Z,98053.31
2022-12-08T01:32:26.113Z,98047.00
2022-12-08T01:33:30.128Z,98052.06
2022-12-08T01:34:36.486Z,98047.59
2022-12-08T01:35:40.598Z,98050.03
2022-12-08T01:36:44.644Z,98041.09
2022-12-08T01:37:47.311Z,98039.88
2022-12-08T01:38:51.167Z,98051.66
2022-12-08T01:39:53.830Z,98040.47
2022-12-08T01:40:56.474Z,98043.81
2022-12-08T01:42:02.460Z,98041.87
2022-12-08T01:43:06.630Z,98040.59
2022-12-08T01:44:11.075Z,98046.19
2022-12-08T01:45:27.036Z,98043.13
2022-12-08T01:46:31.892Z,98043.03
2022-12-08T01:47:43.111Z,98048.06
2022-12-08T01:48:46.048Z,98046.25
2022-12-08T01:49:48.957Z,98039.56
2022-12-08T01:50:54.017Z,98038.22
2022-12-08T01:52:14.958Z,98037.09
2022-12-08T01:53:23.921Z,98038.34
2022-12-08T01:54:31.944Z,98035.88
2022-12-08T01:55:49.615Z,98036.56
2022-12-08T01:57:04.752Z,98034.75
2022-12-08T01:58:15.992Z,98033.19
2022-12-08T01:59:19.449Z,98034.09
2022-12-08T02:00:23.236Z,98032.63
2022-12-08T02:01:26.122Z,98037.00
2022-12-08T02:02:39.755Z,98034.19
2022-12-08T02:04:01.134Z,98036.88
2022-12-08T02:05:04.324Z,98037.66
2022-12-08T02:06:07.564Z,98035.09
2022-12-08T02:07:12.664Z,98023.56
2022-12-08T02:08:15.606Z,98032.75
2022-12-08T02:09:19.846Z,98029.72
2022-12-08T02:10:24.889Z,98031.84
2022-12-08T02:11:27.928Z,98030.06
2022-12-08T02:12:30.849Z,98018.22
2022-12-08T02:13:33.503Z,98026.47
2022-12-08T02:14:36.178Z,98012.72
2022-12-08T02:15:38.899Z,98019.87
2022-12-08T02:16:52.908Z,98018.66
2022-12-08T02:18:31.225Z,98017.75
2022-12-08T02:19:58.685Z,98010.53
2022-12-08T02:21:09.486Z,98013.19
2022-12-08T02:22:14.603Z,98018.03
2022-12-08T02:23:48.169Z,98017.03
2022-12-08T02:25:09.292Z,98020.06
2022-12-08T02:26:27.005Z,98015.91
2022-12-08T02:28:04.652Z,98019.75
2022-12-08T02:29:52.505Z,98015.06
2022-12-08T02:31:52.152Z,98013.59
2022-12-08T02:33:39.361Z,98010.78
2022-12-08T02:35:05.436Z,98014.16
2022-12-08T02:36:22.106Z,98013.59
2022-12-08T02:37:32.988Z,98007.00
2022-12-08T02:38:43.855Z,98010.34
2022-12-08T02:39:58.454Z,98007.75
2022-12-08T02:41:29.506Z,98002.16
2022-12-08T02:42:35.366Z,98006.84
2022-12-08T02:44:04.287Z,98004.16
2022-12-08T02:45:14.888Z,98000.81
2022-12-08T02:46:25.169Z,98007.09
2022-12-08T02:47:29.582Z,98003.37
2022-12-08T02:48:34.328Z,98005.72
2022-12-08T02:49:36.974Z,98007.41
2022-12-08T02:50:39.960Z,98012.13
2022-12-08T02:51:42.807Z,98006.50
2022-12-08T02:52:47.253Z,98005.69
2022-12-08T02:53:51.810Z,97992.69
2022-12-08T02:54:59.662Z,97992.44
2022-12-08T02:56:29.848Z,97999.19
2022-12-08T02:57:49.558Z,98000.12
2022-12-08T02:59:18.400Z,97994.91
2022-12-08T03:00:23.123Z,97996.87
2022-12-08T03:02:01.739Z,97997.91
2022-12-08T03:03:50.328Z,97995.81
2022-12-08T03:05:26.639Z,97988.13
2022-12-08T03:06:51.734Z,97986.59
2022-12-08T03:08:16.902Z,97986.72
2022-12-08T03:09:35.953Z,97987.94
2022-12-08T03:11:05.413Z,97988.72
2022-12-08T03:12:16.998Z,97987.59
2022-12-08T03:13:40.793Z,97985.69
2022-12-08T03:14:52.950Z,97981.31
2022-12-08T03:15:56.826Z,97992.28
2022-12-08T03:17:01.005Z,97985.00
2022-12-08T03:18:06.848Z,97987.84
2022-12-08T03:19:14.694Z,97993.31
2022-12-08T03:20:22.013Z,97989.19
2022-12-08T03:21:25.947Z,97986.19
2022-12-08T03:22:29.612Z,97982.28
2022-12-08T03:23:36.467Z,97983.28
2022-12-08T03:24:42.430Z,97987.84
2022-12-08T03:26:12.265Z,97987.06
2022-12-08T03:27:21.375Z,97987.84
2022-12-08T03:28:24.964Z,97988.84
2022-12-08T03:29:28.036Z,97983.00
2022-12-08T03:30:36.998Z,97988.00
2022-12-08T03:31:45.953Z,97989.97
2022-12-08T03:32:57.847Z,97985.81
2022-12-08T03:34:03.128Z,97989.25
2022-12-08T03:35:11.353Z,97979.44
2022-12-08T03:36:15.176Z,97977.31
2022-12-08T03:37:18.634Z,97985.28
2022-12-08T03:38:22.405Z,97990.69
2022-12-08T03:39:25.505Z,97977.53
2022-12-08T03:40:28.336Z,97980.78
2022-12-08T03:41:31.374Z,97978.97
2022-12-08T03:42:34.405Z,97983.75
2022-12-08T03:43:37.234Z,97978.75
2022-12-08T03:44:40.007Z,97977.94
2022-12-08T03:45:43.238Z,97977.94
2022-12-08T03:46:46.294Z,97979.22
2022-12-08T03:47:49.261Z,97979.59
2022-12-08T03:48:52.379Z,97976.88
2022-12-08T03:49:55.344Z,97991.81
2022-12-08T03:50:58.600Z,97982.41
2022-12-08T03:52:01.412Z,97980.78
2022-12-08T03:53:04.270Z,97979.22
2022-12-08T03:54:07.143Z,97972.47
2022-12-08T03:55:10.362Z,97974.91
2022-12-08T03:56:28.658Z,97968.19
2022-12-08T03:57:35.217Z,97969.75
2022-12-08T03:58:38.433Z,97969.22
2022-12-08T03:59:41.385Z,97979.06
2022-12-08T04:00:44.139Z,97971.63
2022-12-08T04:01:47.107Z,97967.41
2022-12-08T04:02:50.053Z,97971.94
2022-12-08T04:03:54.019Z,97974.59
2022-12-08T04:04:56.832Z,97967.25
2022-12-08T04:05:59.575Z,97976.16
2022-12-08T04:07:02.590Z,97971.94
2022-12-08T04:08:05.883Z,97975.56
2022-12-08T04:09:12.628Z,97975.63
2022-12-08T04:10:16.996Z,97970.94
2022-12-08T04:11:20.695Z,97967.97
2022-12-08T04:12:23.756Z,97967.44
2022-12-08T04:13:26.623Z,97966.87
2022-12-08T04:14:29.479Z,97966.78
2022-12-08T04:15:32.453Z,97962.31
2022-12-08T04:16:35.619Z,97965.63
2022-12-08T04:17:38.637Z,97955.22
2022-12-08T04:18:41.558Z,97961.38
2022-12-08T04:19:44.720Z,97960.47
2022-12-08T04:20:47.524Z,97956.22
2022-12-08T04:21:50.444Z,97956.84
2022-12-08T04:22:53.363Z,97956.84
2022-12-08T04:24:01.000Z,97955.53
2022-12-08T04:25:04.403Z,97957.16
2022-12-08T04:26:07.419Z,97955.63
2022-12-08T04:27:10.362Z,97949.81
2022-12-08T04:28:13.665Z,97953.72
2022-12-08T04:29:17.213Z,97949.19
2022-12-08T04:30:20.130Z,97953.50
2022-12-08T04:31:23.116Z,97945.75
2022-12-08T04:32:26.003Z,97952.34
2022-12-08T04:33:29.175Z,97955.22
2022-12-08T04:34:32.030Z,97952.72
2022-12-08T04:35:34.927Z,97950.59
2022-12-08T04:36:37.944Z,97952.78
2022-12-08T04:37:40.815Z,97953.63
2022-12-08T04:38:44.012Z,97955.66
2022-12-08T04:39:47.120Z,97955.75
2022-12-08T04:40:50.043Z,97955.84
2022-12-08T04:41:53.028Z,97951.63
2022-12-08T04:42:55.896Z,97958.66
2022-12-08T04:43:58.837Z,97952.81
2022-12-08T04:45:01.894Z,97954.84
2022-12-08T04:46:09.593Z,97950.06
2022-12-08T04:47:12.537Z,97950.06
2022-12-08T04:48:16.036Z,97956.47
2022-12-08T04:49:19.002Z,97947.00
2022-12-08T04:50:22.037Z,97958.66
2022-12-08T04:51:24.871Z,97954.06
2022-12-08T04:52:28.023Z,97958.09
2022-12-08T04:53:31.124Z,97949.59
2022-12-08T04:54:33.908Z,97948.72
2022-12-08T04:55:40.674Z,97956.25
2022-12-08T04:56:43.669Z,97954.91
2022-12-08T04:57:46.655Z,97954.53
2022-12-08T04:58:49.494Z,97954.84
2022-12-08T04:59:52.599Z,97950.44
2022-12-08T05:00:55.660Z,97950.44
2022-12-08T05:01:58.636Z,97950.75
2022-12-08T05:03:01.671Z,97958.87
2022-12-08T05:04:04.663Z,97947.88
2022-12-08T05:05:08.088Z,97952.56
2022-12-08T05:06:13.803Z,97958.41
2022-12-08T05:07:16.961Z,97951.31
2022-12-08T05:08:20.227Z,97950.66
2022-12-08T05:09:23.667Z,97946.25
2022-12-08T05:10:26.806Z,97953.19
2022-12-08T05:11:29.719Z,97956.16
2022-12-08T05:12:32.740Z,97952.41
2022-12-08T05:13:35.660Z,97947.72
2022-12-08T05:14:38.894Z,97958.03
2022-12-08T05:15:41.851Z,97958.87
2022-12-08T05:16:46.223Z,97957.56
2022-12-08T05:17:49.212Z,97956.09
2022-12-08T05:18:52.058Z,97963.34
2022-12-08T05:19:54.938Z,97953.34
2022-12-08T05:20:57.952Z,97958.09
2022-12-08T05:22:00.718Z,97958.31
2022-12-08T05:23:03.854Z,97964.81
2022-12-08T05:24:06.877Z,97957.63
2022-12-08T05:25:09.868Z,97955.09
2022-12-08T05:26:13.757Z,97956.59
2022-12-08T05:27:16.623Z,97958.31
2022-12-08T05:28:40.679Z,97951.59
2022-12-08T05:29:43.073Z,97950.50
2022-12-08T05:30:45.978Z,97952.47
2022-12-08T05:31:49.124Z,97955.53
2022-12-08T05:32:52.047Z,97949.13
2022-12-08T05:33:58.382Z,97941.22
2022-12-08T05:35:04.005Z,97938.72
2022-12-08T05:36:07.774Z,97943.13
2022-12-08T05:37:10.730Z,97945.97
2022-12-08T05:38:14.007Z,97942.75
2022-12-08T05:39:16.892Z,97944.16
2022-12-08T05:40:19.931Z,97937.44
2022-12-08T05:41:23.166Z,97934.78
2022-12-08T05:42:26.045Z,97930.38
2022-12-08T05:43:29.392Z,97935.16
2022-12-08T05:44:32.288Z,97930.22
2022-12-08T05:45:35.326Z,97923.91
2022-12-08T05:46:38.610Z,97932.03
2022-12-08T05:47:41.530Z,97931.25
2022-12-08T05:48:44.376Z,97926.41
2022-12-08T05:49:47.278Z,97932.59
2022-12-08T05:50:50.839Z,97932.97
2022-12-08T05:51:53.573Z,97936.41
2022-12-08T05:52:56.352Z,97938.13
2022-12-08T05:53:59.527Z,97936.13
2022-12-08T05:55:02.593Z,97943.22
2022-12-08T05:56:11.112Z,97940.34
2022-12-08T05:57:15.282Z,97939.00
2022-12-08T05:58:20.841Z,97939.94
2022-12-08T05:59:23.819Z,97940.72
2022-12-08T06:00:26.956Z,97937.38
2022-12-08T06:01:31.991Z,97943.09
2022-12-08T06:02:36.063Z,97935.09
2022-12-08T06:03:39.054Z,97941.13
2022-12-08T06:04:42.240Z,97939.28
2022-12-08T06:05:46.968Z,97939.75
2022-12-08T06:06:50.063Z,97940.53
2022-12-08T06:07:53.059Z,97950.53
2022-12-08T06:08:56.063Z,97954.34
2022-12-08T06:09:59.047Z,97951.78
2022-12-08T06:11:02.428Z,97954.19
2022-12-08T06:12:05.359Z,97950.97
2022-12-08T06:13:08.840Z,97946.66
2022-12-08T06:14:12.720Z,97949.50
2022-12-08T06:15:15.683Z,97948.16
2022-12-08T06:16:19.393Z,97949.41
2022-12-08T06:17:22.133Z,97954.19
2022-12-08T06:18:29.660Z,97953.63
2022-12-08T06:19:35.953Z,97944.16
2022-12-08T06:20:38.868Z,97951.84
2022-12-08T06:21:41.775Z,97954.28
2022-12-08T06:22:44.753Z,97951.69
2022-12-08T06:23:53.207Z,97957.25
2022-12-08T06:24:56.249Z,97949.97
2022-12-08T06:26:11.121Z,97951.44
2022-12-08T06:27:13.997Z,97950.44
2022-12-08T06:28:17.142Z,97953.84
2022-12-08T06:29:20.096Z,97956.91
2022-12-08T06:30:23.056Z,97949.31
2022-12-08T06:31:27.083Z,97949.31
2022-12-08T06:32:30.041Z,97953.88
2022-12-08T06:33:33.196Z,97956.13
2022-12-08T06:34:36.025Z,97962.03
2022-12-08T06:35:39.092Z,97962.03
2022-12-08T06:36:41.951Z,97959.19
2022-12-08T06:37:48.686Z,97956.31
2022-12-08T06:38:52.014Z,97960.78
2022-12-08T06:39:54.955Z,97958.72
2022-12-08T06:40:59.116Z,97956.91
2022-12-08T06:42:20.375Z,97955.16
2022-12-08T06:43:23.891Z,97950.78
2022-12-08T06:44:26.920Z,97959.94
2022-12-08T06:45:29.777Z,97955.78
2022-12-08T06:46:32.841Z,97960.34
2022-12-08T06:47:35.742Z,97963.94
2022-12-08T06:48:38.994Z,97955.03
2022-12-08T06:49:42.101Z,97964.25
2022-12-08T06:50:45.602Z,97961.44
2022-12-08T06:51:48.463Z,97962.84
2022-12-08T06:53:01.051Z,97962.75
2022-12-08T06:54:07.962Z,97960.47
2022-12-08T06:55:16.907Z,97963.69
2022-12-08T06:56:33.852Z,97961.47
2022-12-08T06:57:37.044Z,97957.81
2022-12-08T06:58:40.137Z,97961.28
2022-12-08T06:59:43.049Z,97967.78
2022-12-08T07:00:46.824Z,97961.44
2022-12-08T07:01:49.780Z,97972.00
2022-12-08T07:02:52.784Z,97967.53
2022-12-08T07:03:55.806Z,97961.22
2022-12-08T07:04:58.646Z,97966.53
2022-12-08T07:06:04.146Z,97963.25
2022-12-08T07:07:08.120Z,97959.34
2022-12-08T07:08:11.291Z,97958.41
2022-12-08T07:09:14.243Z,97958.69
2022-12-08T07:10:18.726Z,97961.44
2022-12-08T07:11:22.716Z,97957.66
2022-12-08T07:12:25.645Z,97957.75
2022-12-08T07:13:28.450Z,97961.28
2022-12-08T07:14:31.293Z,97959.47
2022-12-08T07:15:34.229Z,97958.69
2022-12-08T07:16:37.352Z,97964.94
2022-12-08T07:17:40.609Z,97961.06
2022-12-08T07:18:44.276Z,97963.75
2022-12-08T07:19:47.430Z,97966.13
2022-12-08T07:20:50.311Z,97962.78
2022-12-08T07:21:53.408Z,97968.56
2022-12-08T07:22:56.269Z,97961.09
2022-12-08T07:23:59.110Z,97962.34
2022-12-08T07:25:02.120Z,97966.75
2022-12-08T07:26:08.585Z,97964.31
2022-12-08T07:27:11.604Z,97953.22
2022-12-08T07:28:14.800Z,97958.87
2022-12-08T07:29:21.722Z,97955.69
2022-12-08T07:30:28.987Z,97955.91
2022-12-08T07:31:32.077Z,97952.88
2022-12-08T07:32:38.125Z,97955.91
2022-12-08T07:33:41.141Z,97959.13
2022-12-08T07:34:47.027Z,97952.16
2022-12-08T07:36:02.655Z,97953.44
2022-12-08T07:37:05.587Z,97956.63
2022-12-08T07:38:11.332Z,97935.69
2022-12-08T07:39:14.352Z,97948.13
2022-12-08T07:40:17.303Z,97945.31
2022-12-08T07:41:23.640Z,97942.19
2022-12-08T07:42:28.723Z,97942.81
2022-12-08T07:43:31.979Z,97944.47
2022-12-08T07:44:34.818Z,97948.31
2022-12-08T07:45:41.803Z,97946.44
2022-12-08T07:46:44.820Z,97944.97
2022-12-08T07:47:47.779Z,97946.28
2022-12-08T07:48:52.702Z,97944.97
2022-12-08T07:49:55.522Z,97940.97
2022-12-08T07:51:03.143Z,97945.88
2022-12-08T07:52:06.029Z,97947.28
2022-12-08T07:53:09.634Z,97943.13
2022-12-08T07:54:13.288Z,97946.03
2022-12-08T07:55:16.667Z,97949.94
2022-12-08T07:56:19.974Z,97937.00
2022-12-08T07:57:22.720Z,97948.72
2022-12-08T07:58:26.654Z,97954.47
2022-12-08T07:59:29.961Z,97951.34
2022-12-08T08:00:32.909Z,97948.06
2022-12-08T08:01:36.357Z,97953.59
2022-12-08T08:02:40.133Z,97945.19
2022-12-08T08:03:43.559Z,97945.00
2022-12-08T08:04:50.819Z,97959.50
2022-12-08T08:05:53.587Z,97949.19
2022-12-08T08:06:56.694Z,97950.47
2022-12-08T08:07:59.655Z,97952.78
2022-12-08T08:09:02.957Z,97955.84
2022-12-08T08:10:07.334Z,97949.69
2022-12-08T08:11:18.956Z,97954.59
2022-12-08T08:12:31.172Z,97949.59
2022-12-08T08:13:34.773Z,97949.38
2022-12-08T08:14:37.552Z,97949.03
2022-12-08T08:15:40.937Z,97949.88
2022-12-08T08:16:47.073Z,97950.13
2022-12-08T08:17:54.044Z,97946.47
2022-12-08T08:18:57.141Z,97950.84
2022-12-08T08:20:00.872Z,97949.59
2022-12-08T08:21:22.141Z,97951.19
2022-12-08T08:22:27.633Z,97949.19
2022-12-08T08:23:30.673Z,97950.28
2022-12-08T08:24:33.510Z,97944.63
2022-12-08T08:25:36.576Z,97949.56
2022-12-08T08:26:39.677Z,97943.00
2022-12-08T08:27:42.905Z,97950.91
2022-12-08T08:28:46.302Z,97952.41
2022-12-08T08:29:49.487Z,97945.63
2022-12-08T08:30:52.609Z,97952.69
2022-12-08T08:31:55.613Z,97941.50
2022-12-08T08:32:58.500Z,97941.75
2022-12-08T08:34:06.664Z,97943.75
2022-12-08T08:35:10.468Z,97940.50
2022-12-08T08:36:13.334Z,97946.50
2022-12-08T08:37:16.356Z,97942.03
2022-12-08T08:38:19.383Z,97944.38
2022-12-08T08:39:22.678Z,97945.69
2022-12-08T08:40:25.896Z,97949.56
2022-12-08T08:41:29.150Z,97936.66
2022-12-08T08:42:32.141Z,97945.94
2022-12-08T08:43:38.549Z,97942.31
2022-12-08T08:44:41.894Z,97943.81
2022-12-08T08:45:44.829Z,97937.88
2022-12-08T08:46:48.052Z,97942.09
2022-12-08T08:47:54.724Z,97944.94
2022-12-08T08:48:58.356Z,97946.78
2022-12-08T08:50:01.836Z,97945.91
2022-12-08T08:51:10.851Z,97939.16
2022-12-08T08:52:13.633Z,97941.31
2022-12-08T08:53:16.928Z,97936.94
2022-12-08T08:54:19.798Z,97940.53
2022-12-08T08:55:22.696Z,97936.16
2022-12-08T08:56:25.961Z,97929.97
2022-12-08T08:57:32.727Z,97932.59
2022-12-08T08:58:35.570Z,97934.13
2022-12-08T08:59:38.471Z,97938.56
2022-12-08T09:00:41.463Z,97939.12
2022-12-08T09:01:44.534Z,97943.06
2022-12-08T09:02:47.537Z,97946.41
2022-12-08T09:03:50.706Z,97947.09
2022-12-08T09:04:53.744Z,97944.88
2022-12-08T09:05:56.895Z,97944.88
2022-12-08T09:07:00.641Z,97951.09
2022-12-08T09:08:03.589Z,97942.03
2022-12-08T09:09:06.575Z,97940.19
2022-12-08T09:10:09.984Z,97935.56
2022-12-08T09:11:13.816Z,97929.88
2022-12-08T09:12:16.832Z,97926.19
2022-12-08T09:13:19.619Z,97928.22
2022-12-08T09:14:23.417Z,97925.38
2022-12-08T09:15:26.268Z,97928.47
2022-12-08T09:16:29.188Z,97930.13
2022-12-08T09:17:32.677Z,97931.06
2022-12-08T09:18:35.856Z,97923.84
2022-12-08T09:19:38.735Z,97929.16
2022-12-08T09:20:41.697Z,97926.16
2022-12-08T09:21:44.760Z,97930.28
2022-12-08T09:22:47.985Z,97929.22
2022-12-08T09:23:53.128Z,97929.03
2022-12-08T09:24:56.173Z,97933.69
2022-12-08T09:25:59.138Z,97926.69
2022-12-08T09:27:02.042Z,97930.34
2022-12-08T09:28:05.004Z,97930.06
2022-12-08T09:29:08.281Z,97926.00
2022-12-08T09:30:11.422Z,97932.66
2022-12-08T09:31:15.106Z,97917.56
2022-12-08T09:32:19.099Z,97916.53
2022-12-08T09:33:21.941Z,97922.78
2022-12-08T09:34:24.874Z,97924.38
2022-12-08T09:35:27.760Z,97918.72
2022-12-08T09:36:31.412Z,97918.66
2022-12-08T09:37:35.319Z,97923.50
2022-12-08T09:38:39.378Z,97918.09
2022-12-08T09:39:42.337Z,97919.44
2022-12-08T09:40:53.943Z,97916.81
2022-12-08T09:42:05.054Z,97905.97
2022-12-08T09:43:40.166Z,97905.72
2022-12-08T09:45:02.873Z,97900.97
2022-12-08T09:46:10.061Z,97895.59
2022-12-08T09:47:24.430Z,97895.34
2022-12-08T09:48:36.771Z,97889.13
2022-12-08T09:50:10.996Z,97886.03
2022-12-08T09:51:16.524Z,97881.16
2022-12-08T09:52:25.741Z,97882.75
2022-12-08T09:53:40.869Z,97883.78
2022-12-08T09:54:43.784Z,97882.28
2022-12-08T09:56:02.292Z,97887.44
2022-12-08T09:57:15.275Z,97900.91
2022-12-08T09:58:28.041Z,97898.53
2022-12-08T09:59:33.859Z,97900.03
2022-12-08T10:00:36.823Z,97896.25
2022-12-08T10:01:43.792Z,97893.91
2022-12-08T10:02:47.941Z,97884.84
2022-12-08T10:03:50.952Z,97889.25
2022-12-08T10:04:59.968Z,97895.69
2022-12-08T10:06:15.095Z,97899.34
2022-12-08T10:07:27.684Z,97902.47
2022-12-08T10:09:00.481Z,97909.47
2022-12-08T10:10:24.564Z,97910.03
2022-12-08T10:11:39.879Z,97902.47
2022-12-08T10:13:04.823Z,97907.34
2022-12-08T10:14:16.300Z,97911.84
2022-12-08T10:15:42.163Z,97899.88
2022-12-08T10:16:50.160Z,97896.81
2022-12-08T10:17:54.790Z,97891.63
2022-12-08T10:19:22.611Z,97895.28
2022-12-08T10:20:31.006Z,97886.16
2022-12-08T10:21:33.990Z,97891.81
2022-12-08T10:22:42.890Z,97882.75
2022-12-08T10:23:55.758Z,97879.69
2022-12-08T10:25:05.628Z,97874.78
2022-12-08T10:26:18.383Z,97869.38
2022-12-08T10:27:21.680Z,97877.88
2022-12-08T10:28:24.643Z,97870.66
2022-12-08T10:29:28.244Z,97867.56
2022-12-08T10:30:32.347Z,97868.38
2022-12-08T10:31:35.529Z,97862.09
2022-12-08T10:32:39.777Z,97869.91
2022-12-08T10:33:42.829Z,97856.69
2022-12-08T10:35:04.191Z,97853.06
2022-12-08T10:36:07.418Z,97855.97
2022-12-08T10:37:10.854Z,97844.25
2022-12-08T10:38:21.848Z,97848.62
2022-12-08T10:39:37.572Z,97849.69
2022-12-08T10:40:46.011Z,97849.97
2022-12-08T10:41:51.646Z,97843.25
2022-12-08T10:42:58.524Z,97843.22
2022-12-08T10:44:02.263Z,97837.50
2022-12-08T10:45:17.989Z,97842.69
2022-12-08T10:46:26.092Z,97834.16
2022-12-08T10:47:30.761Z,97831.59
2022-12-08T10:48:34.044Z,97828.19
2022-12-08T10:49:39.114Z,97831.53
2022-12-08T10:50:53.248Z,97826.34
2022-12-08T10:51:56.274Z,97820.13
2022-12-08T10:53:15.029Z,97819.91
2022-12-08T10:54:37.635Z,97820.69
2022-12-08T10:55:44.589Z,97821.72
2022-12-08T10:56:55.463Z,97815.78
2022-12-08T10:57:58.196Z,97812.34
2022-12-08T10:59:19.657Z,97808.78
2022-12-08T11:00:26.970Z,97814.47
2022-12-08T11:01:36.912Z,97809.56
2022-12-08T11:03:14.235Z,97807.00
2022-12-08T11:04:39.797Z,97806.22
2022-12-08T11:05:42.669Z,97794.03
2022-12-08T11:06:46.798Z,97795.56
2022-12-08T11:07:54.077Z,97807.50
2022-12-08T11:09:00.329Z,97796.38
2022-12-08T11:10:03.827Z,97800.25
2022-12-08T11:11:07.689Z,97797.87
2022-12-08T11:12:17.982Z,97790.66
2022-12-08T11:13:26.847Z,97791.16
2022-12-08T11:14:32.798Z,97786.75
2022-12-08T11:15:39.453Z,97781.81
2022-12-08T11:16:43.386Z,97778.72
2022-12-08T11:17:52.199Z,97777.44
2022-12-08T11:18:59.425Z,97775.34
2022-12-08T11:20:20.793Z,97772.50
2022-12-08T11:21:35.594Z,97767.81
2022-12-08T11:22:42.087Z,97764.19
2022-12-08T11:23:50.468Z,97759.28
2022-12-08T11:25:10.877Z,97757.72
2022-12-08T11:26:22.616Z,97745.28
2022-12-08T11:27:26.117Z,97747.88
2022-12-08T11:28:29.460Z,97738.28
2022-12-08T11:29:35.939Z,97741.41
2022-12-08T11:30:44.332Z,97743.72
2022-12-08T11:32:02.112Z,97733.59
2022-12-08T11:33:21.721Z,97734.12
2022-12-08T11:34:34.872Z,97723.75
2022-12-08T11:35:41.237Z,97732.31
2022-12-08T11:36:44.986Z,97733.59
2022-12-08T11:37:47.814Z,97726.84
2022-12-08T11:38:56.017Z,97721.41
2022-12-08T11:40:05.100Z,97727.88
2022-12-08T11:41:18.364Z,97727.41
2022-12-08T11:42:26.115Z,97729.19
2022-12-08T11:43:46.304Z,97721.94
2022-12-08T11:45:01.823Z,97719.88
2022-12-08T11:46:14.929Z,97720.91
2022-12-08T11:47:40.270Z,97719.63
2022-12-08T11:49:09.333Z,97724.28
2022-12-08T11:50:29.401Z,97723.78
2022-12-08T11:51:40.290Z,97722.19
2022-12-08T11:52:48.537Z,97717.31
2022-12-08T11:54:15.868Z,97723.25
2022-12-08T11:55:37.068Z,97722.97
2022-12-08T11:56:46.253Z,97719.34
2022-12-08T11:57:49.268Z,97708.50
2022-12-08T11:58:59.536Z,97717.56
2022-12-08T12:00:04.051Z,97716.78
2022-12-08T12:01:18.761Z,97720.66
2022-12-08T12:02:30.037Z,97718.56
2022-12-08T12:03:42.107Z,97721.19
2022-12-08T12:04:45.501Z,97722.19
2022-12-08T12:06:18.595Z,97728.94
2022-12-08T12:07:33.142Z,97721.94
2022-12-08T12:09:14.610Z,97724.03
2022-12-08T12:10:26.854Z,97723.00
2022-12-08T12:12:09.887Z,97723.00
2022-12-08T12:13:48.197Z,97721.16
2022-12-08T12:15:28.188Z,97713.41
2022-12-08T12:16:51.642Z,97713.38
2022-12-08T12:18:12.011Z,97716.78
2022-12-08T12:19:22.006Z,97718.06
2022-12-08T12:20:32.267Z,97720.41
2022-12-08T12:21:38.457Z,97723.25
2022-12-08T12:22:45.165Z,97708.19
2022-12-08T12:23:57.136Z,97717.00
2022-12-08T12:25:00.785Z,97717.56
2022-12-08T12:26:07.488Z,97717.53
2022-12-08T12:27:16.473Z,97714.69
2022-12-08T12:28:20.904Z,97720.09
2022-12-08T12:29:27.924Z,97708.47
2022-12-08T12:31:01.581Z,97710.78
2022-12-08T12:32:10.678Z,97713.34
2022-12-08T12:33:15.871Z,97713.63
2022-12-08T12:34:24.319Z,97711.81
2022-12-08T12:35:41.694Z,97703.53
2022-12-08T12:36:53.128Z,97717.25
2022-12-08T12:38:01.064Z,97718.56
2022-12-08T12:39:08.856Z,97715.44
2022-12-08T12:40:20.613Z,97720.38
2022-12-08T12:41:27.370Z,97716.50
2022-12-08T12:42:45.824Z,97712.59
2022-12-08T12:44:09.290Z,97714.13
2022-12-08T12:45:23.932Z,97710.47
2022-12-08T12:46:39.240Z,97712.84
2022-12-08T12:47:56.557Z,97702.50
2022-12-08T12:49:38.302Z,97708.44
2022-12-08T12:50:52.077Z,97707.13
2022-12-08T12:51:55.828Z,97708.19
2022-12-08T12:53:20.168Z,97702.75
2022-12-08T12:54:28.510Z,97705.34
2022-12-08T12:55:46.655Z,97701.72
2022-12-08T12:57:05.083Z,97697.84
2022-12-08T12:58:22.989Z,97707.69
2022-12-08T12:59:56.101Z,97706.87
2022-12-08T13:01:14.156Z,97711.78
2022-12-08T13:02:40.192Z,97702.47
2022-12-08T13:03:52.456Z,97693.16
2022-12-08T13:05:33.265Z,97692.88
2022-12-08T13:06:42.473Z,97698.56
2022-12-08T13:08:03.949Z,97691.09
2022-12-08T13:09:07.768Z,97698.84
2022-12-08T13:10:16.480Z,97693.91
2022-12-08T13:11:20.116Z,97694.44
2022-12-08T13:12:25.187Z,97687.69